EZS1523 LSGG-GMTT
Flight info
| Callsign | EZS1523 |
|---|---|
| Flight time | N/A |
| Altitude | 35000 |
| Route | BALSI DCT RETNO DCT TUPOX DCT MTG DCT DIVKO DCT NILDU DCT NENDA DCT BCN DCT RODRA DCT PEXOT DCT EBROX/N0439F370 DCT LOTOS DCT TORDU DCT DIKUT DCT SOPET DCT VLC DCT SERRA DCT ASTRO DCT POBOS DCT XEBAR DCT YES DCT MAMIS DCT BAZAS DCT VIBAS DCT MGA DCT PIMOS N869 GALTO M143 LAMAD |
| Aircraft | A320/M-SDE2E3FGHIJ1RWXYZ/LB1 |
Departure
| Time | N/A |
|---|---|
| Airport | Geneva International Airport (LSGG) |
Arrival
| Time | 2026-04-28 12:28 |
|---|---|
| Airport | Tangier Ibn Battuta Airport (GMTT) |
| Time | Latitude | Longitude | Altitude | Speed | Heading |
|---|---|---|---|---|---|
| 2026-04-28 12:01 | 37.16750 | -3.92014 | 38951 ft | 423 kts | 225° |
| 2026-04-28 12:01 | 37.14694 | -3.94655 | 38957 ft | 423 kts | 225° |
| 2026-04-28 12:01 | 37.10576 | -3.99925 | 38966 ft | 423 kts | 225° |
| 2026-04-28 12:02 | 37.06443 | -4.05200 | 38979 ft | 424 kts | 225° |
| 2026-04-28 12:02 | 37.02309 | -4.10468 | 38929 ft | 424 kts | 225° |
| 2026-04-28 12:03 | 37.00223 | -4.13124 | 38119 ft | 431 kts | 225° |
| 2026-04-28 12:03 | 36.98129 | -4.15787 | 37629 ft | 427 kts | 225° |
| 2026-04-28 12:03 | 36.96054 | -4.18423 | 37104 ft | 424 kts | 225° |
| 2026-04-28 12:03 | 36.93991 | -4.21047 | 36563 ft | 422 kts | 225° |
| 2026-04-28 12:04 | 36.91938 | -4.23657 | 36030 ft | 420 kts | 226° |
| 2026-04-28 12:04 | 36.89922 | -4.26213 | 35551 ft | 417 kts | 225° |
| 2026-04-28 12:04 | 36.87861 | -4.28826 | 35057 ft | 415 kts | 226° |
| 2026-04-28 12:04 | 36.85872 | -4.31347 | 34566 ft | 413 kts | 226° |
| 2026-04-28 12:05 | 36.83831 | -4.33929 | 34066 ft | 411 kts | 225° |
| 2026-04-28 12:05 | 36.81792 | -4.36418 | 33528 ft | 409 kts | 220° |
| 2026-04-28 12:05 | 36.79507 | -4.38502 | 33009 ft | 406 kts | 213° |
| 2026-04-28 12:05 | 36.77128 | -4.40391 | 32512 ft | 404 kts | 212° |
| 2026-04-28 12:06 | 36.74797 | -4.42238 | 32014 ft | 401 kts | 212° |
| 2026-04-28 12:06 | 36.72447 | -4.44098 | 31517 ft | 399 kts | 212° |
| 2026-04-28 12:06 | 36.70115 | -4.45955 | 31038 ft | 397 kts | 212° |
| 2026-04-28 12:06 | 36.67799 | -4.47804 | 30547 ft | 394 kts | 212° |
| 2026-04-28 12:07 | 36.65464 | -4.49666 | 30076 ft | 392 kts | 212° |
| 2026-04-28 12:07 | 36.63203 | -4.51467 | 29562 ft | 390 kts | 212° |
| 2026-04-28 12:07 | 36.60900 | -4.53291 | 29106 ft | 385 kts | 212° |
| 2026-04-28 12:07 | 36.58651 | -4.55068 | 28651 ft | 381 kts | 212° |
| 2026-04-28 12:08 | 36.56424 | -4.56824 | 28226 ft | 377 kts | 212° |
| 2026-04-28 12:08 | 36.54251 | -4.58540 | 27806 ft | 373 kts | 212° |
| 2026-04-28 12:08 | 36.52073 | -4.60261 | 27377 ft | 369 kts | 212° |
| 2026-04-28 12:08 | 36.49916 | -4.61965 | 26947 ft | 366 kts | 212° |
| 2026-04-28 12:09 | 36.47777 | -4.63653 | 26520 ft | 363 kts | 212° |
| 2026-04-28 12:09 | 36.45650 | -4.65329 | 26076 ft | 360 kts | 212° |
| 2026-04-28 12:09 | 36.43541 | -4.66993 | 25638 ft | 358 kts | 212° |
| 2026-04-28 12:09 | 36.41442 | -4.68645 | 25174 ft | 357 kts | 212° |
| 2026-04-28 12:10 | 36.39350 | -4.70288 | 24734 ft | 355 kts | 212° |
| 2026-04-28 12:10 | 36.37266 | -4.71923 | 24276 ft | 354 kts | 212° |
| 2026-04-28 12:10 | 36.35186 | -4.73556 | 23814 ft | 354 kts | 212° |
| 2026-04-28 12:10 | 36.33109 | -4.75191 | 23315 ft | 354 kts | 212° |
| 2026-04-28 12:11 | 36.31035 | -4.76824 | 22834 ft | 352 kts | 212° |
| 2026-04-28 12:11 | 36.28967 | -4.78449 | 22369 ft | 351 kts | 212° |
| 2026-04-28 12:11 | 36.26909 | -4.80061 | 21935 ft | 350 kts | 212° |
| 2026-04-28 12:11 | 36.24858 | -4.81664 | 21477 ft | 347 kts | 212° |
| 2026-04-28 12:12 | 36.22823 | -4.83259 | 21031 ft | 345 kts | 212° |
| 2026-04-28 12:12 | 36.20795 | -4.84846 | 20598 ft | 344 kts | 212° |
| 2026-04-28 12:12 | 36.18778 | -4.86422 | 20160 ft | 342 kts | 212° |
| 2026-04-28 12:12 | 36.16768 | -4.87989 | 19724 ft | 341 kts | 212° |
| 2026-04-28 12:13 | 36.14763 | -4.89553 | 19290 ft | 340 kts | 212° |
| 2026-04-28 12:13 | 36.12768 | -4.91122 | 18855 ft | 339 kts | 212° |
| 2026-04-28 12:13 | 36.10786 | -4.92695 | 18433 ft | 338 kts | 212° |
| 2026-04-28 12:13 | 36.08809 | -4.94264 | 17973 ft | 337 kts | 212° |
| 2026-04-28 12:14 | 36.06840 | -4.95826 | 17543 ft | 335 kts | 212° |
| 2026-04-28 12:14 | 36.04881 | -4.97377 | 17114 ft | 333 kts | 212° |
| 2026-04-28 12:14 | 36.02934 | -4.98917 | 16724 ft | 331 kts | 212° |
| 2026-04-28 12:14 | 36.00997 | -5.00447 | 16312 ft | 330 kts | 212° |
| 2026-04-28 12:15 | 35.99066 | -5.01973 | 15908 ft | 328 kts | 212° |
| 2026-04-28 12:15 | 35.97145 | -5.03494 | 15513 ft | 328 kts | 212° |
| 2026-04-28 12:15 | 35.95230 | -5.05007 | 15117 ft | 326 kts | 212° |
| 2026-04-28 12:15 | 35.93321 | -5.06512 | 14716 ft | 325 kts | 211° |
| 2026-04-28 12:16 | 35.91418 | -5.08006 | 14321 ft | 324 kts | 212° |
| 2026-04-28 12:16 | 35.89519 | -5.09496 | 13929 ft | 324 kts | 212° |
| 2026-04-28 12:16 | 35.87624 | -5.10987 | 13510 ft | 323 kts | 211° |
| 2026-04-28 12:16 | 35.85748 | -5.12490 | 13091 ft | 321 kts | 215° |
| 2026-04-28 12:17 | 35.84160 | -5.14409 | 12669 ft | 321 kts | 232° |
| 2026-04-28 12:17 | 35.83395 | -5.15966 | 12421 ft | 321 kts | 244° |
| 2026-04-28 12:17 | 35.82745 | -5.18583 | 12017 ft | 321 kts | 259° |
| 2026-04-28 12:17 | 35.82382 | -5.21289 | 11610 ft | 320 kts | 259° |
| 2026-04-28 12:18 | 35.82014 | -5.23986 | 11196 ft | 319 kts | 259° |
| 2026-04-28 12:18 | 35.81644 | -5.26676 | 10784 ft | 318 kts | 259° |
| 2026-04-28 12:18 | 35.81275 | -5.29361 | 10393 ft | 317 kts | 259° |
| 2026-04-28 12:18 | 35.80909 | -5.31994 | 10268 ft | 307 kts | 260° |
| 2026-04-28 12:19 | 35.80554 | -5.34544 | 10116 ft | 297 kts | 261° |
| 2026-04-28 12:19 | 35.80208 | -5.37025 | 9725 ft | 290 kts | 261° |
| 2026-04-28 12:19 | 35.79871 | -5.39461 | 9095 ft | 287 kts | 260° |
| 2026-04-28 12:19 | 35.79538 | -5.41875 | 8478 ft | 285 kts | 260° |
| 2026-04-28 12:20 | 35.79174 | -5.44260 | 7825 ft | 283 kts | 253° |
| 2026-04-28 12:20 | 35.78285 | -5.46410 | 7087 ft | 284 kts | 229° |
| 2026-04-28 12:20 | 35.76854 | -5.48023 | 6579 ft | 275 kts | 219° |
| 2026-04-28 12:20 | 35.75394 | -5.49498 | 6158 ft | 264 kts | 218° |
| 2026-04-28 12:21 | 35.74036 | -5.50875 | 6025 ft | 243 kts | 219° |
| 2026-04-28 12:21 | 35.72800 | -5.52129 | 5897 ft | 224 kts | 217° |
| 2026-04-28 12:21 | 35.71641 | -5.53303 | 5765 ft | 210 kts | 219° |
| 2026-04-28 12:21 | 35.70682 | -5.54631 | 5465 ft | 208 kts | 236° |
| 2026-04-28 12:22 | 35.70079 | -5.56238 | 5118 ft | 210 kts | 250° |
| 2026-04-28 12:22 | 35.69874 | -5.58067 | 4561 ft | 223 kts | 272° |
| 2026-04-28 12:22 | 35.70077 | -5.59982 | 4237 ft | 226 kts | 277° |
| 2026-04-28 12:22 | 35.70292 | -5.61888 | 4076 ft | 224 kts | 274° |
| 2026-04-28 12:23 | 35.70478 | -5.63754 | 3951 ft | 214 kts | 273° |
| 2026-04-28 12:23 | 35.70650 | -5.65545 | 3935 ft | 208 kts | 273° |
| 2026-04-28 12:23 | 35.70816 | -5.67293 | 3761 ft | 205 kts | 273° |
| 2026-04-28 12:23 | 35.70980 | -5.69013 | 3493 ft | 200 kts | 274° |
| 2026-04-28 12:24 | 35.71140 | -5.70699 | 3221 ft | 198 kts | 274° |
| 2026-04-28 12:24 | 35.71299 | -5.72361 | 2976 ft | 192 kts | 273° |
| 2026-04-28 12:24 | 35.71453 | -5.73966 | 2728 ft | 187 kts | 274° |
| 2026-04-28 12:24 | 35.71602 | -5.75548 | 2477 ft | 186 kts | 273° |
| 2026-04-28 12:25 | 35.71750 | -5.77127 | 2237 ft | 185 kts | 274° |
| 2026-04-28 12:25 | 35.71900 | -5.78693 | 1990 ft | 184 kts | 274° |
| 2026-04-28 12:25 | 35.72046 | -5.80237 | 1754 ft | 178 kts | 274° |
| 2026-04-28 12:25 | 35.72187 | -5.81725 | 1522 ft | 173 kts | 275° |
| 2026-04-28 12:26 | 35.72322 | -5.83153 | 1291 ft | 163 kts | 273° |
| 2026-04-28 12:26 | 35.72449 | -5.84504 | 1067 ft | 158 kts | 273° |
| 2026-04-28 12:26 | 35.72574 | -5.85842 | 879 ft | 156 kts | 277° |
| 2026-04-28 12:26 | 35.72695 | -5.87134 | 669 ft | 148 kts | 274° |
| 2026-04-28 12:27 | 35.72820 | -5.88381 | 467 ft | 146 kts | 274° |
| 2026-04-28 12:27 | 35.72940 | -5.89603 | 274 ft | 143 kts | 274° |
| 2026-04-28 12:27 | 35.73047 | -5.90809 | 71 ft | 140 kts | 273° |
| 2026-04-28 12:27 | 35.73146 | -5.91895 | 35 ft | 107 kts | 276° |
| 2026-04-28 12:28 | 35.73211 | -5.92595 | 27 ft | 58 kts | 276° |
| 2026-04-28 12:28 | 35.73242 | -5.92953 | 23 ft | 37 kts | 275° |
| 2026-04-28 12:28 | 35.73263 | -5.93241 | 20 ft | 20 kts | 265° |
| 2026-04-28 12:28 | 35.73166 | -5.93327 | 19 ft | 18 kts | 172° |
| 2026-04-28 12:29 | 35.73075 | -5.93089 | 22 ft | 14 kts | 96° |
| 2026-04-28 12:29 | 35.73065 | -5.92980 | 24 ft | 12 kts | 96° |
| 2026-04-28 12:29 | 35.73050 | -5.92826 | 26 ft | 25 kts | 97° |
| 2026-04-28 12:30 | 35.73029 | -5.92609 | 28 ft | 26 kts | 97° |
| 2026-04-28 12:30 | 35.73008 | -5.92387 | 31 ft | 26 kts | 96° |
| 2026-04-28 12:30 | 35.72988 | -5.92163 | 34 ft | 26 kts | 97° |
| 2026-04-28 12:30 | 35.72966 | -5.91937 | 37 ft | 27 kts | 96° |
| 2026-04-28 12:31 | 35.72937 | -5.91746 | 39 ft | 15 kts | 132° |
| 2026-04-28 12:31 | 35.72838 | -5.91715 | 40 ft | 16 kts | 176° |
| 2026-04-28 12:31 | 35.72725 | -5.91705 | 41 ft | 17 kts | 175° |
| 2026-04-28 12:31 | 35.72601 | -5.91694 | 41 ft | 18 kts | 176° |
| 2026-04-28 12:32 | 35.72474 | -5.91661 | 41 ft | 19 kts | 142° |
| 2026-04-28 12:32 | 35.72427 | -5.91518 | 44 ft | 17 kts | 85° |
| 2026-04-28 12:32 | 35.72441 | -5.91446 | 43 ft | 6 kts | 41° |
| 2026-04-28 12:32 | 35.72477 | -5.91443 | 44 ft | 5 kts | 356° |
| 2026-04-28 12:33 | 35.72507 | -5.91446 | 44 ft | 4 kts | 355° |
| 2026-04-28 12:33 | 35.72521 | -5.91448 | 44 ft | 0 kts | 356° |